sensor_id;sensor_type;location;lat;lon;timestamp;P1;durP1;ratioP1;P2;durP2;ratioP2
14550;SDS011;7362;50.956;4.184;2022-07-23T00:04:37;10.85;;;7.85;;
14550;SDS011;7362;50.956;4.184;2022-07-23T00:10:25;10.57;;;8.52;;
14550;SDS011;7362;50.956;4.184;2022-07-23T00:16:13;9.63;;;7.32;;
14550;SDS011;7362;50.956;4.184;2022-07-23T00:25:04;12.70;;;8.88;;
14550;SDS011;7362;50.956;4.184;2022-07-23T00:30:55;10.23;;;8.18;;
14550;SDS011;7362;50.956;4.184;2022-07-23T00:51:57;10.98;;;9.07;;
14550;SDS011;7362;50.956;4.184;2022-07-23T00:57:28;12.82;;;9.43;;
14550;SDS011;7362;50.956;4.184;2022-07-23T00:59:55;11.30;;;8.27;;
14550;SDS011;7362;50.956;4.184;2022-07-23T01:02:26;12.85;;;10.07;;
14550;SDS011;7362;50.956;4.184;2022-07-23T01:04:52;12.27;;;9.80;;
14550;SDS011;7362;50.956;4.184;2022-07-23T01:07:22;15.77;;;10.35;;
14550;SDS011;7362;50.956;4.184;2022-07-23T01:09:49;10.93;;;9.70;;
14550;SDS011;7362;50.956;4.184;2022-07-23T01:12:17;12.27;;;9.02;;
14550;SDS011;7362;50.956;4.184;2022-07-23T01:14:56;12.15;;;9.23;;
14550;SDS011;7362;50.956;4.184;2022-07-23T01:20:35;16.88;;;10.63;;
14550;SDS011;7362;50.956;4.184;2022-07-23T01:23:01;11.82;;;10.60;;
14550;SDS011;7362;50.956;4.184;2022-07-23T01:25:26;12.80;;;10.55;;
14550;SDS011;7362;50.956;4.184;2022-07-23T01:27:54;10.07;;;9.02;;
14550;SDS011;7362;50.956;4.184;2022-07-23T01:30:21;11.43;;;10.23;;
14550;SDS011;7362;50.956;4.184;2022-07-23T01:32:48;11.32;;;10.13;;
14550;SDS011;7362;50.956;4.184;2022-07-23T01:35:15;11.77;;;9.50;;
14550;SDS011;7362;50.956;4.184;2022-07-23T01:37:50;13.57;;;9.73;;
14550;SDS011;7362;50.956;4.184;2022-07-23T01:40:35;13.27;;;9.57;;
14550;SDS011;7362;50.956;4.184;2022-07-23T01:46:26;12.55;;;11.13;;
14550;SDS011;7362;50.956;4.184;2022-07-23T01:49:07;10.85;;;9.70;;
14550;SDS011;7362;50.956;4.184;2022-07-23T01:55:02;11.40;;;9.45;;
14550;SDS011;7362;50.956;4.184;2022-07-23T02:00:53;11.57;;;9.73;;
14550;SDS011;7362;50.956;4.184;2022-07-23T02:03:19;12.90;;;9.60;;
14550;SDS011;7362;50.956;4.184;2022-07-23T02:05:47;14.60;;;10.40;;
14550;SDS011;7362;50.956;4.184;2022-07-23T02:08:21;14.60;;;9.82;;
14550;SDS011;7362;50.956;4.184;2022-07-23T02:10:48;13.93;;;10.73;;
14550;SDS011;7362;50.956;4.184;2022-07-23T02:13:29;13.88;;;10.00;;
14550;SDS011;7362;50.956;4.184;2022-07-23T02:15:56;12.05;;;9.13;;
14550;SDS011;7362;50.956;4.184;2022-07-23T02:18:22;13.10;;;11.13;;
14550;SDS011;7362;50.956;4.184;2022-07-23T02:20:55;12.88;;;10.52;;
14550;SDS011;7362;50.956;4.184;2022-07-23T02:23:22;11.02;;;9.43;;
14550;SDS011;7362;50.956;4.184;2022-07-23T02:25:49;11.18;;;9.93;;
14550;SDS011;7362;50.956;4.184;2022-07-23T02:28:18;11.55;;;8.77;;
14550;SDS011;7362;50.956;4.184;2022-07-23T02:30:47;12.32;;;9.75;;
14550;SDS011;7362;50.956;4.184;2022-07-23T02:33:16;13.05;;;9.82;;
14550;SDS011;7362;50.956;4.184;2022-07-23T02:35:47;15.00;;;10.80;;
14550;SDS011;7362;50.956;4.184;2022-07-23T02:38:13;12.57;;;11.13;;
14550;SDS011;7362;50.956;4.184;2022-07-23T02:40:39;12.90;;;10.52;;
14550;SDS011;7362;50.956;4.184;2022-07-23T02:43:05;13.77;;;10.75;;
14550;SDS011;7362;50.956;4.184;2022-07-23T02:45:32;14.00;;;10.23;;
14550;SDS011;7362;50.956;4.184;2022-07-23T02:47:57;17.42;;;11.52;;
14550;SDS011;7362;50.956;4.184;2022-07-23T02:50:25;13.25;;;10.48;;
14550;SDS011;7362;50.956;4.184;2022-07-23T02:52:52;12.43;;;10.95;;
14550;SDS011;7362;50.956;4.184;2022-07-23T02:55:19;12.85;;;10.98;;
14550;SDS011;7362;50.956;4.184;2022-07-23T02:57:45;14.65;;;9.90;;
14550;SDS011;7362;50.956;4.184;2022-07-23T03:00:11;12.50;;;10.52;;
14550;SDS011;7362;50.956;4.184;2022-07-23T03:02:43;13.95;;;10.48;;
14550;SDS011;7362;50.956;4.184;2022-07-23T03:05:15;12.85;;;9.73;;
14550;SDS011;7362;50.956;4.184;2022-07-23T03:10:34;13.05;;;10.98;;
14550;SDS011;7362;50.956;4.184;2022-07-23T03:13:01;11.13;;;9.50;;
14550;SDS011;7362;50.956;4.184;2022-07-23T03:15:26;13.63;;;10.82;;
14550;SDS011;7362;50.956;4.184;2022-07-23T03:17:54;12.25;;;10.60;;
14550;SDS011;7362;50.956;4.184;2022-07-23T03:20:23;12.77;;;9.68;;
14550;SDS011;7362;50.956;4.184;2022-07-23T03:22:48;15.15;;;10.48;;
14550;SDS011;7362;50.956;4.184;2022-07-23T03:25:25;13.57;;;10.40;;
14550;SDS011;7362;50.956;4.184;2022-07-23T03:27:51;13.35;;;11.00;;
14550;SDS011;7362;50.956;4.184;2022-07-23T03:30:17;11.57;;;9.23;;
14550;SDS011;7362;50.956;4.184;2022-07-23T03:32:44;14.00;;;10.60;;
14550;SDS011;7362;50.956;4.184;2022-07-23T03:35:12;15.55;;;11.35;;
14550;SDS011;7362;50.956;4.184;2022-07-23T03:37:38;12.60;;;10.25;;
14550;SDS011;7362;50.956;4.184;2022-07-23T03:40:05;12.93;;;10.05;;
14550;SDS011;7362;50.956;4.184;2022-07-23T03:42:36;11.55;;;9.63;;
14550;SDS011;7362;50.956;4.184;2022-07-23T03:45:10;10.60;;;9.50;;
14550;SDS011;7362;50.956;4.184;2022-07-23T03:47:40;14.55;;;10.35;;
14550;SDS011;7362;50.956;4.184;2022-07-23T03:50:09;13.95;;;10.23;;
14550;SDS011;7362;50.956;4.184;2022-07-23T03:52:53;12.65;;;10.55;;
14550;SDS011;7362;50.956;4.184;2022-07-23T03:55:36;13.77;;;9.68;;
14550;SDS011;7362;50.956;4.184;2022-07-23T04:00:32;13.25;;;9.27;;
14550;SDS011;7362;50.956;4.184;2022-07-23T04:03:04;11.57;;;8.95;;
14550;SDS011;7362;50.956;4.184;2022-07-23T04:05:30;10.73;;;9.13;;
14550;SDS011;7362;50.956;4.184;2022-07-23T04:07:58;11.68;;;9.57;;
14550;SDS011;7362;50.956;4.184;2022-07-23T04:10:24;11.98;;;9.65;;
14550;SDS011;7362;50.956;4.184;2022-07-23T04:12:50;11.48;;;9.82;;
14550;SDS011;7362;50.956;4.184;2022-07-23T04:15:16;13.02;;;9.88;;
14550;SDS011;7362;50.956;4.184;2022-07-23T04:17:48;14.20;;;8.80;;
14550;SDS011;7362;50.956;4.184;2022-07-23T04:20:13;12.70;;;10.05;;
14550;SDS011;7362;50.956;4.184;2022-07-23T04:22:41;10.38;;;9.15;;
14550;SDS011;7362;50.956;4.184;2022-07-23T04:25:07;10.32;;;9.00;;
14550;SDS011;7362;50.956;4.184;2022-07-23T04:27:41;10.10;;;9.05;;
14550;SDS011;7362;50.956;4.184;2022-07-23T04:30:08;10.48;;;8.57;;
14550;SDS011;7362;50.956;4.184;2022-07-23T04:32:34;10.07;;;8.98;;
14550;SDS011;7362;50.956;4.184;2022-07-23T04:35:02;11.50;;;8.90;;
14550;SDS011;7362;50.956;4.184;2022-07-23T04:37:31;14.68;;;8.82;;
14550;SDS011;7362;50.956;4.184;2022-07-23T04:40:09;14.70;;;9.23;;
14550;SDS011;7362;50.956;4.184;2022-07-23T04:45:23;14.35;;;9.57;;
14550;SDS011;7362;50.956;4.184;2022-07-23T04:48:00;11.88;;;9.45;;
14550;SDS011;7362;50.956;4.184;2022-07-23T04:58:51;9.88;;;7.93;;
14550;SDS011;7362;50.956;4.184;2022-07-23T05:01:24;12.00;;;9.38;;
14550;SDS011;7362;50.956;4.184;2022-07-23T05:03:50;12.93;;;8.60;;
14550;SDS011;7362;50.956;4.184;2022-07-23T05:06:16;12.57;;;8.55;;
14550;SDS011;7362;50.956;4.184;2022-07-23T05:08:41;9.45;;;8.05;;
14550;SDS011;7362;50.956;4.184;2022-07-23T05:11:08;9.65;;;7.95;;
14550;SDS011;7362;50.956;4.184;2022-07-23T05:13:34;10.40;;;7.82;;
14550;SDS011;7362;50.956;4.184;2022-07-23T05:16:00;9.45;;;7.90;;
14550;SDS011;7362;50.956;4.184;2022-07-23T05:18:25;12.02;;;7.80;;
14550;SDS011;7362;50.956;4.184;2022-07-23T05:23:28;11.35;;;8.15;;
14550;SDS011;7362;50.956;4.184;2022-07-23T05:25:55;10.10;;;7.80;;
14550;SDS011;7362;50.956;4.184;2022-07-23T05:28:23;9.98;;;7.63;;
14550;SDS011;7362;50.956;4.184;2022-07-23T05:30:50;11.93;;;7.75;;
14550;SDS011;7362;50.956;4.184;2022-07-23T05:33:18;10.57;;;8.38;;
14550;SDS011;7362;50.956;4.184;2022-07-23T05:35:44;10.68;;;7.50;;
14550;SDS011;7362;50.956;4.184;2022-07-23T05:38:11;10.98;;;8.05;;
14550;SDS011;7362;50.956;4.184;2022-07-23T05:40:37;9.38;;;7.97;;
14550;SDS011;7362;50.956;4.184;2022-07-23T05:43:03;9.10;;;7.55;;
14550;SDS011;7362;50.956;4.184;2022-07-23T05:48:31;11.07;;;8.38;;
14550;SDS011;7362;50.956;4.184;2022-07-23T05:51:09;9.13;;;7.55;;
14550;SDS011;7362;50.956;4.184;2022-07-23T05:53:36;10.32;;;8.32;;
14550;SDS011;7362;50.956;4.184;2022-07-23T05:56:14;10.23;;;7.85;;
14550;SDS011;7362;50.956;4.184;2022-07-23T06:01:09;10.05;;;8.02;;
14550;SDS011;7362;50.956;4.184;2022-07-23T06:03:36;10.30;;;7.93;;
14550;SDS011;7362;50.956;4.184;2022-07-23T06:06:06;9.13;;;7.47;;
14550;SDS011;7362;50.956;4.184;2022-07-23T06:08:38;10.65;;;8.07;;
14550;SDS011;7362;50.956;4.184;2022-07-23T06:11:03;9.15;;;8.18;;
14550;SDS011;7362;50.956;4.184;2022-07-23T06:13:29;9.77;;;8.10;;
14550;SDS011;7362;50.956;4.184;2022-07-23T06:15:55;9.15;;;7.88;;
14550;SDS011;7362;50.956;4.184;2022-07-23T06:18:25;9.90;;;7.15;;
14550;SDS011;7362;50.956;4.184;2022-07-23T06:20:51;10.30;;;7.88;;
14550;SDS011;7362;50.956;4.184;2022-07-23T06:23:19;11.38;;;7.55;;
14550;SDS011;7362;50.956;4.184;2022-07-23T06:25:45;8.90;;;7.15;;
14550;SDS011;7362;50.956;4.184;2022-07-23T06:28:11;8.57;;;6.97;;
14550;SDS011;7362;50.956;4.184;2022-07-23T06:30:37;8.77;;;7.15;;
14550;SDS011;7362;50.956;4.184;2022-07-23T06:33:06;8.05;;;6.60;;
14550;SDS011;7362;50.956;4.184;2022-07-23T06:35:35;8.00;;;6.82;;
14550;SDS011;7362;50.956;4.184;2022-07-23T06:38:02;7.63;;;6.32;;
14550;SDS011;7362;50.956;4.184;2022-07-23T06:40:31;7.63;;;6.82;;
14550;SDS011;7362;50.956;4.184;2022-07-23T06:42:59;7.93;;;6.50;;
14550;SDS011;7362;50.956;4.184;2022-07-23T06:45:27;7.88;;;7.07;;
14550;SDS011;7362;50.956;4.184;2022-07-23T06:47:54;9.77;;;7.53;;
14550;SDS011;7362;50.956;4.184;2022-07-23T06:50:22;7.30;;;6.53;;
14550;SDS011;7362;50.956;4.184;2022-07-23T06:52:49;7.55;;;6.30;;
14550;SDS011;7362;50.956;4.184;2022-07-23T06:55:18;6.63;;;5.70;;
14550;SDS011;7362;50.956;4.184;2022-07-23T06:57:44;8.07;;;6.68;;
14550;SDS011;7362;50.956;4.184;2022-07-23T07:00:10;7.70;;;6.85;;
14550;SDS011;7362;50.956;4.184;2022-07-23T07:02:39;7.97;;;6.40;;
14550;SDS011;7362;50.956;4.184;2022-07-23T07:05:07;7.72;;;6.93;;
14550;SDS011;7362;50.956;4.184;2022-07-23T07:07:34;6.57;;;5.88;;
14550;SDS011;7362;50.956;4.184;2022-07-23T07:10:00;7.80;;;7.00;;
14550;SDS011;7362;50.956;4.184;2022-07-23T07:12:30;6.65;;;5.72;;
14550;SDS011;7362;50.956;4.184;2022-07-23T07:14:56;7.45;;;6.13;;
14550;SDS011;7362;50.956;4.184;2022-07-23T07:19:51;8.45;;;6.47;;
14550;SDS011;7362;50.956;4.184;2022-07-23T07:22:19;6.88;;;6.10;;
14550;SDS011;7362;50.956;4.184;2022-07-23T07:24:45;6.75;;;6.05;;
14550;SDS011;7362;50.956;4.184;2022-07-23T07:27:11;8.18;;;6.75;;
14550;SDS011;7362;50.956;4.184;2022-07-23T07:29:37;7.40;;;6.00;;
14550;SDS011;7362;50.956;4.184;2022-07-23T07:32:03;7.40;;;6.28;;
14550;SDS011;7362;50.956;4.184;2022-07-23T07:34:30;14.85;;;6.78;;
14550;SDS011;7362;50.956;4.184;2022-07-23T07:36:56;8.38;;;5.85;;
14550;SDS011;7362;50.956;4.184;2022-07-23T07:41:58;8.60;;;5.75;;
14550;SDS011;7362;50.956;4.184;2022-07-23T07:46:55;6.93;;;5.00;;
14550;SDS011;7362;50.956;4.184;2022-07-23T07:52:44;7.20;;;5.80;;
14550;SDS011;7362;50.956;4.184;2022-07-23T08:01:01;5.95;;;5.10;;
14550;SDS011;7362;50.956;4.184;2022-07-23T08:06:52;6.85;;;5.15;;
14550;SDS011;7362;50.956;4.184;2022-07-23T08:12:41;8.32;;;5.30;;
14550;SDS011;7362;50.956;4.184;2022-07-23T08:18:32;7.00;;;5.63;;
14550;SDS011;7362;50.956;4.184;2022-07-23T08:27:43;9.95;;;5.25;;
14550;SDS011;7362;50.956;4.184;2022-07-23T08:30:10;6.18;;;5.57;;
14550;SDS011;7362;50.956;4.184;2022-07-23T08:35:59;6.20;;;5.38;;
14550;SDS011;7362;50.956;4.184;2022-07-23T08:42:03;6.15;;;5.03;;
14550;SDS011;7362;50.956;4.184;2022-07-23T08:47:13;5.90;;;4.85;;
14550;SDS011;7362;50.956;4.184;2022-07-23T08:49:41;5.75;;;4.68;;
14550;SDS011;7362;50.956;4.184;2022-07-23T08:52:09;5.82;;;5.32;;
14550;SDS011;7362;50.956;4.184;2022-07-23T08:54:37;6.00;;;5.38;;
14550;SDS011;7362;50.956;4.184;2022-07-23T09:00:06;5.72;;;5.20;;
14550;SDS011;7362;50.956;4.184;2022-07-23T09:14:55;5.78;;;5.15;;
14550;SDS011;7362;50.956;4.184;2022-07-23T09:17:41;5.90;;;4.72;;
14550;SDS011;7362;50.956;4.184;2022-07-23T09:20:24;5.38;;;4.88;;
14550;SDS011;7362;50.956;4.184;2022-07-23T09:22:54;5.85;;;5.05;;
14550;SDS011;7362;50.956;4.184;2022-07-23T09:26:02;5.22;;;4.72;;
14550;SDS011;7362;50.956;4.184;2022-07-23T09:31:55;6.05;;;4.70;;
14550;SDS011;7362;50.956;4.184;2022-07-23T09:34:57;5.38;;;4.78;;
14550;SDS011;7362;50.956;4.184;2022-07-23T09:37:26;4.75;;;4.25;;
14550;SDS011;7362;50.956;4.184;2022-07-23T09:40:02;4.60;;;4.20;;
14550;SDS011;7362;50.956;4.184;2022-07-23T09:42:39;5.60;;;4.68;;
14550;SDS011;7362;50.956;4.184;2022-07-23T09:45:21;6.40;;;4.03;;
14550;SDS011;7362;50.956;4.184;2022-07-23T09:50:43;5.45;;;4.25;;
14550;SDS011;7362;50.956;4.184;2022-07-23T09:56:38;5.68;;;4.00;;
14550;SDS011;7362;50.956;4.184;2022-07-23T10:10:52;5.47;;;3.88;;
14550;SDS011;7362;50.956;4.184;2022-07-23T10:15:47;5.15;;;3.80;;
14550;SDS011;7362;50.956;4.184;2022-07-23T10:18:14;4.63;;;3.25;;
14550;SDS011;7362;50.956;4.184;2022-07-23T10:20:44;5.38;;;3.80;;
14550;SDS011;7362;50.956;4.184;2022-07-23T10:37:38;3.95;;;3.25;;
14550;SDS011;7362;50.956;4.184;2022-07-23T10:40:22;3.22;;;2.92;;
14550;SDS011;7362;50.956;4.184;2022-07-23T10:42:51;2.88;;;2.67;;
14550;SDS011;7362;50.956;4.184;2022-07-23T10:45:24;3.25;;;2.95;;
14550;SDS011;7362;50.956;4.184;2022-07-23T10:51:05;4.25;;;3.55;;
14550;SDS011;7362;50.956;4.184;2022-07-23T10:53:55;8.75;;;3.85;;
14550;SDS011;7362;50.956;4.184;2022-07-23T11:02:38;3.88;;;3.58;;
14550;SDS011;7362;50.956;4.184;2022-07-23T11:24:08;4.05;;;3.20;;
14550;SDS011;7362;50.956;4.184;2022-07-23T11:26:55;3.40;;;3.10;;
14550;SDS011;7362;50.956;4.184;2022-07-23T11:32:08;5.15;;;4.07;;
14550;SDS011;7362;50.956;4.184;2022-07-23T11:34:58;4.00;;;3.70;;
14550;SDS011;7362;50.956;4.184;2022-07-23T11:37:29;4.68;;;4.28;;
14550;SDS011;7362;50.956;4.184;2022-07-23T11:40:14;5.28;;;4.30;;
14550;SDS011;7362;50.956;4.184;2022-07-23T11:42:56;4.72;;;4.30;;
14550;SDS011;7362;50.956;4.184;2022-07-23T11:45:29;5.97;;;4.22;;
14550;SDS011;7362;50.956;4.184;2022-07-23T11:48:03;4.32;;;3.92;;
14550;SDS011;7362;50.956;4.184;2022-07-23T11:50:51;4.32;;;3.92;;
14550;SDS011;7362;50.956;4.184;2022-07-23T12:13:17;4.63;;;3.95;;
14550;SDS011;7362;50.956;4.184;2022-07-23T12:18:46;4.60;;;4.13;;
14550;SDS011;7362;50.956;4.184;2022-07-23T12:21:14;5.85;;;4.40;;
14550;SDS011;7362;50.956;4.184;2022-07-23T12:23:46;5.60;;;4.65;;
14550;SDS011;7362;50.956;4.184;2022-07-23T12:26:23;5.35;;;4.85;;
14550;SDS011;7362;50.956;4.184;2022-07-23T12:28:52;3.90;;;3.50;;
14550;SDS011;7362;50.956;4.184;2022-07-23T12:34:40;5.15;;;4.10;;
14550;SDS011;7362;50.956;4.184;2022-07-23T12:37:27;4.15;;;3.60;;
14550;SDS011;7362;50.956;4.184;2022-07-23T12:42:26;5.65;;;4.60;;
14550;SDS011;7362;50.956;4.184;2022-07-23T12:51:05;5.93;;;4.30;;
14550;SDS011;7362;50.956;4.184;2022-07-23T12:56:51;4.55;;;3.47;;
14550;SDS011;7362;50.956;4.184;2022-07-23T12:59:35;5.38;;;4.10;;
14550;SDS011;7362;50.956;4.184;2022-07-23T13:02:04;5.18;;;4.57;;
14550;SDS011;7362;50.956;4.184;2022-07-23T13:04:34;5.05;;;4.55;;
14550;SDS011;7362;50.956;4.184;2022-07-23T13:07:03;5.80;;;4.88;;
14550;SDS011;7362;50.956;4.184;2022-07-23T13:12:14;5.20;;;4.25;;
14550;SDS011;7362;50.956;4.184;2022-07-23T13:17:56;5.85;;;3.70;;
14550;SDS011;7362;50.956;4.184;2022-07-23T13:20:27;5.20;;;4.53;;
14550;SDS011;7362;50.956;4.184;2022-07-23T13:23:11;5.90;;;4.55;;
14550;SDS011;7362;50.956;4.184;2022-07-23T13:25:41;4.72;;;3.65;;
14550;SDS011;7362;50.956;4.184;2022-07-23T13:28:07;5.50;;;3.75;;
14550;SDS011;7362;50.956;4.184;2022-07-23T13:30:46;3.90;;;3.55;;
14550;SDS011;7362;50.956;4.184;2022-07-23T13:33:15;4.03;;;3.63;;
14550;SDS011;7362;50.956;4.184;2022-07-23T13:35:49;5.40;;;3.20;;
14550;SDS011;7362;50.956;4.184;2022-07-23T13:38:17;4.20;;;3.20;;
14550;SDS011;7362;50.956;4.184;2022-07-23T13:40:46;4.05;;;3.40;;
14550;SDS011;7362;50.956;4.184;2022-07-23T13:43:14;5.20;;;3.63;;
14550;SDS011;7362;50.956;4.184;2022-07-23T13:45:44;4.90;;;3.75;;
14550;SDS011;7362;50.956;4.184;2022-07-23T13:48:11;4.55;;;3.00;;
14550;SDS011;7362;50.956;4.184;2022-07-23T13:50:39;4.93;;;3.63;;
14550;SDS011;7362;50.956;4.184;2022-07-23T13:53:08;4.53;;;3.17;;
14550;SDS011;7362;50.956;4.184;2022-07-23T13:55:40;3.90;;;3.08;;
14550;SDS011;7362;50.956;4.184;2022-07-23T13:58:10;3.80;;;3.03;;
14550;SDS011;7362;50.956;4.184;2022-07-23T14:00:37;3.90;;;3.35;;
14550;SDS011;7362;50.956;4.184;2022-07-23T14:03:09;4.78;;;2.80;;
14550;SDS011;7362;50.956;4.184;2022-07-23T14:05:36;3.65;;;3.00;;
14550;SDS011;7362;50.956;4.184;2022-07-23T14:08:06;3.53;;;2.83;;
14550;SDS011;7362;50.956;4.184;2022-07-23T14:10:33;4.25;;;2.60;;
14550;SDS011;7362;50.956;4.184;2022-07-23T14:12:59;3.95;;;3.20;;
14550;SDS011;7362;50.956;4.184;2022-07-23T14:15:26;4.00;;;3.25;;
14550;SDS011;7362;50.956;4.184;2022-07-23T14:18:00;6.22;;;3.28;;
14550;SDS011;7362;50.956;4.184;2022-07-23T14:20:26;6.13;;;3.67;;
14550;SDS011;7362;50.956;4.184;2022-07-23T14:23:00;4.45;;;3.40;;
14550;SDS011;7362;50.956;4.184;2022-07-23T14:25:27;3.40;;;3.03;;
14550;SDS011;7362;50.956;4.184;2022-07-23T14:27:59;5.45;;;3.50;;
14550;SDS011;7362;50.956;4.184;2022-07-23T14:30:43;3.58;;;2.92;;
14550;SDS011;7362;50.956;4.184;2022-07-23T14:33:11;4.28;;;3.00;;
14550;SDS011;7362;50.956;4.184;2022-07-23T14:35:44;5.00;;;3.38;;
14550;SDS011;7362;50.956;4.184;2022-07-23T14:38:11;4.38;;;3.42;;
14550;SDS011;7362;50.956;4.184;2022-07-23T14:40:37;3.72;;;3.15;;
14550;SDS011;7362;50.956;4.184;2022-07-23T14:43:08;5.10;;;3.67;;
14550;SDS011;7362;50.956;4.184;2022-07-23T14:45:35;20.05;;;17.55;;
14550;SDS011;7362;50.956;4.184;2022-07-23T14:48:01;7.18;;;3.75;;
14550;SDS011;7362;50.956;4.184;2022-07-23T14:50:28;3.15;;;2.88;;
14550;SDS011;7362;50.956;4.184;2022-07-23T14:52:56;3.90;;;3.25;;
14550;SDS011;7362;50.956;4.184;2022-07-23T14:55:25;5.13;;;4.03;;
14550;SDS011;7362;50.956;4.184;2022-07-23T14:57:55;4.45;;;3.42;;
14550;SDS011;7362;50.956;4.184;2022-07-23T15:00:20;5.75;;;3.45;;
14550;SDS011;7362;50.956;4.184;2022-07-23T15:02:48;3.33;;;3.03;;
14550;SDS011;7362;50.956;4.184;2022-07-23T15:05:14;4.25;;;3.25;;
14550;SDS011;7362;50.956;4.184;2022-07-23T15:07:44;4.88;;;3.42;;
14550;SDS011;7362;50.956;4.184;2022-07-23T15:12:43;4.22;;;3.20;;
14550;SDS011;7362;50.956;4.184;2022-07-23T15:15:10;3.03;;;2.70;;
14550;SDS011;7362;50.956;4.184;2022-07-23T15:17:38;4.90;;;3.53;;
14550;SDS011;7362;50.956;4.184;2022-07-23T15:20:07;3.65;;;2.60;;
14550;SDS011;7362;50.956;4.184;2022-07-23T15:22:34;5.75;;;3.47;;
14550;SDS011;7362;50.956;4.184;2022-07-23T15:25:05;5.93;;;3.03;;
14550;SDS011;7362;50.956;4.184;2022-07-23T15:27:33;5.38;;;3.47;;
14550;SDS011;7362;50.956;4.184;2022-07-23T15:30:00;3.95;;;3.33;;
14550;SDS011;7362;50.956;4.184;2022-07-23T15:32:26;6.10;;;4.55;;
14550;SDS011;7362;50.956;4.184;2022-07-23T15:34:54;4.60;;;3.75;;
14550;SDS011;7362;50.956;4.184;2022-07-23T15:37:24;3.63;;;3.33;;
14550;SDS011;7362;50.956;4.184;2022-07-23T15:42:42;3.58;;;3.28;;
14550;SDS011;7362;50.956;4.184;2022-07-23T15:45:10;4.57;;;3.70;;
14550;SDS011;7362;50.956;4.184;2022-07-23T15:47:37;4.13;;;3.17;;
14550;SDS011;7362;50.956;4.184;2022-07-23T15:50:08;6.18;;;3.45;;
14550;SDS011;7362;50.956;4.184;2022-07-23T15:52:36;7.20;;;3.60;;
14550;SDS011;7362;50.956;4.184;2022-07-23T15:55:03;4.45;;;3.53;;
14550;SDS011;7362;50.956;4.184;2022-07-23T15:57:29;3.97;;;3.10;;
14550;SDS011;7362;50.956;4.184;2022-07-23T15:59:56;5.30;;;3.28;;
14550;SDS011;7362;50.956;4.184;2022-07-23T16:02:27;5.78;;;3.13;;
14550;SDS011;7362;50.956;4.184;2022-07-23T16:07:29;5.85;;;4.15;;
14550;SDS011;7362;50.956;4.184;2022-07-23T16:09:56;4.20;;;3.22;;
14550;SDS011;7362;50.956;4.184;2022-07-23T16:12:26;4.55;;;3.90;;
14550;SDS011;7362;50.956;4.184;2022-07-23T16:14:56;4.35;;;3.50;;
14550;SDS011;7362;50.956;4.184;2022-07-23T16:17:25;5.18;;;3.33;;
14550;SDS011;7362;50.956;4.184;2022-07-23T16:19:55;3.67;;;2.78;;
14550;SDS011;7362;50.956;4.184;2022-07-23T16:22:22;4.03;;;3.40;;
14550;SDS011;7362;50.956;4.184;2022-07-23T16:24:49;3.90;;;3.50;;
14550;SDS011;7362;50.956;4.184;2022-07-23T16:27:15;4.18;;;3.42;;
14550;SDS011;7362;50.956;4.184;2022-07-23T16:29:41;6.05;;;3.05;;
14550;SDS011;7362;50.956;4.184;2022-07-23T16:32:07;3.80;;;3.10;;
14550;SDS011;7362;50.956;4.184;2022-07-23T16:34:34;3.95;;;3.17;;
14550;SDS011;7362;50.956;4.184;2022-07-23T16:37:01;5.00;;;3.42;;
14550;SDS011;7362;50.956;4.184;2022-07-23T16:39:28;3.63;;;3.30;;
14550;SDS011;7362;50.956;4.184;2022-07-23T16:41:54;4.20;;;3.80;;
14550;SDS011;7362;50.956;4.184;2022-07-23T16:44:23;4.35;;;3.13;;
14550;SDS011;7362;50.956;4.184;2022-07-23T16:46:49;3.95;;;3.50;;
14550;SDS011;7362;50.956;4.184;2022-07-23T16:49:14;4.25;;;3.45;;
14550;SDS011;7362;50.956;4.184;2022-07-23T16:51:40;3.17;;;2.88;;
14550;SDS011;7362;50.956;4.184;2022-07-23T16:54:07;3.35;;;2.97;;
14550;SDS011;7362;50.956;4.184;2022-07-23T16:56:35;5.47;;;3.60;;
14550;SDS011;7362;50.956;4.184;2022-07-23T16:59:13;4.07;;;2.92;;
14550;SDS011;7362;50.956;4.184;2022-07-23T17:01:40;4.32;;;3.50;;
14550;SDS011;7362;50.956;4.184;2022-07-23T17:04:06;6.05;;;3.45;;
14550;SDS011;7362;50.956;4.184;2022-07-23T17:06:33;6.40;;;3.47;;
14550;SDS011;7362;50.956;4.184;2022-07-23T17:09:00;3.70;;;3.10;;
14550;SDS011;7362;50.956;4.184;2022-07-23T17:11:32;11.15;;;3.38;;
14550;SDS011;7362;50.956;4.184;2022-07-23T17:14:03;5.20;;;3.70;;
14550;SDS011;7362;50.956;4.184;2022-07-23T17:16:33;5.00;;;4.28;;
14550;SDS011;7362;50.956;4.184;2022-07-23T17:19:03;6.43;;;4.05;;
14550;SDS011;7362;50.956;4.184;2022-07-23T17:21:32;6.20;;;3.47;;
14550;SDS011;7362;50.956;4.184;2022-07-23T17:23:59;5.40;;;3.25;;
14550;SDS011;7362;50.956;4.184;2022-07-23T17:26:38;3.80;;;3.20;;
14550;SDS011;7362;50.956;4.184;2022-07-23T17:29:06;4.70;;;3.63;;
14550;SDS011;7362;50.956;4.184;2022-07-23T17:31:33;5.13;;;3.83;;
14550;SDS011;7362;50.956;4.184;2022-07-23T17:34:09;4.50;;;3.47;;
14550;SDS011;7362;50.956;4.184;2022-07-23T17:36:35;4.55;;;3.47;;
14550;SDS011;7362;50.956;4.184;2022-07-23T17:39:08;6.70;;;3.78;;
14550;SDS011;7362;50.956;4.184;2022-07-23T17:41:34;4.45;;;3.10;;
14550;SDS011;7362;50.956;4.184;2022-07-23T17:44:00;4.18;;;3.42;;
14550;SDS011;7362;50.956;4.184;2022-07-23T17:46:27;5.45;;;3.15;;
14550;SDS011;7362;50.956;4.184;2022-07-23T17:48:57;4.00;;;3.50;;
14550;SDS011;7362;50.956;4.184;2022-07-23T17:51:24;5.85;;;3.60;;
14550;SDS011;7362;50.956;4.184;2022-07-23T17:53:51;5.10;;;3.20;;
14550;SDS011;7362;50.956;4.184;2022-07-23T17:56:18;9.52;;;4.60;;
14550;SDS011;7362;50.956;4.184;2022-07-23T17:58:53;5.28;;;3.63;;
14550;SDS011;7362;50.956;4.184;2022-07-23T18:01:20;4.68;;;3.22;;
14550;SDS011;7362;50.956;4.184;2022-07-23T18:03:48;5.57;;;3.63;;
14550;SDS011;7362;50.956;4.184;2022-07-23T18:06:18;6.35;;;3.30;;
14550;SDS011;7362;50.956;4.184;2022-07-23T18:08:47;6.15;;;4.15;;
14550;SDS011;7362;50.956;4.184;2022-07-23T18:13:52;6.32;;;3.65;;
14550;SDS011;7362;50.956;4.184;2022-07-23T18:16:23;4.75;;;3.97;;
14550;SDS011;7362;50.956;4.184;2022-07-23T18:18:49;4.57;;;3.95;;
14550;SDS011;7362;50.956;4.184;2022-07-23T18:21:23;7.97;;;4.00;;
14550;SDS011;7362;50.956;4.184;2022-07-23T18:27:23;4.15;;;3.65;;
14550;SDS011;7362;50.956;4.184;2022-07-23T18:29:50;5.40;;;3.92;;
14550;SDS011;7362;50.956;4.184;2022-07-23T18:32:20;5.15;;;3.80;;
14550;SDS011;7362;50.956;4.184;2022-07-23T18:34:59;4.53;;;3.95;;
14550;SDS011;7362;50.956;4.184;2022-07-23T18:37:25;10.38;;;3.85;;
14550;SDS011;7362;50.956;4.184;2022-07-23T18:39:53;5.60;;;3.97;;
14550;SDS011;7362;50.956;4.184;2022-07-23T18:42:20;5.25;;;3.88;;
14550;SDS011;7362;50.956;4.184;2022-07-23T18:44:46;4.45;;;4.05;;
14550;SDS011;7362;50.956;4.184;2022-07-23T18:47:13;6.13;;;3.90;;
14550;SDS011;7362;50.956;4.184;2022-07-23T18:49:39;4.43;;;3.72;;
14550;SDS011;7362;50.956;4.184;2022-07-23T18:52:05;6.50;;;4.97;;
14550;SDS011;7362;50.956;4.184;2022-07-23T18:54:31;5.15;;;4.22;;
14550;SDS011;7362;50.956;4.184;2022-07-23T18:56:58;5.80;;;4.60;;
14550;SDS011;7362;50.956;4.184;2022-07-23T18:59:24;5.63;;;4.93;;
14550;SDS011;7362;50.956;4.184;2022-07-23T19:01:49;4.70;;;4.28;;
14550;SDS011;7362;50.956;4.184;2022-07-23T19:04:16;4.60;;;4.07;;
14550;SDS011;7362;50.956;4.184;2022-07-23T19:06:42;4.50;;;4.10;;
14550;SDS011;7362;50.956;4.184;2022-07-23T19:09:08;5.22;;;4.45;;
14550;SDS011;7362;50.956;4.184;2022-07-23T19:11:35;6.50;;;4.53;;
14550;SDS011;7362;50.956;4.184;2022-07-23T19:14:03;4.97;;;4.22;;
14550;SDS011;7362;50.956;4.184;2022-07-23T19:16:37;4.72;;;4.15;;
14550;SDS011;7362;50.956;4.184;2022-07-23T19:19:06;7.78;;;4.43;;
14550;SDS011;7362;50.956;4.184;2022-07-23T19:21:33;7.25;;;4.40;;
14550;SDS011;7362;50.956;4.184;2022-07-23T19:24:01;7.15;;;4.70;;
14550;SDS011;7362;50.956;4.184;2022-07-23T19:26:42;8.25;;;4.28;;
14550;SDS011;7362;50.956;4.184;2022-07-23T19:32:33;5.20;;;4.03;;
14550;SDS011;7362;50.956;4.184;2022-07-23T19:35:15;7.07;;;4.20;;
14550;SDS011;7362;50.956;4.184;2022-07-23T19:37:46;5.90;;;4.50;;